Time;durP1;ratioP1;P1;durP2;ratioP2;P2;SDS_P1;SDS_P2;PMS_P1;PMS_P2;Temp;Humidity;BMP_temperature;BMP_pressure;BME280_temperature;BME280_humidity;BME280_pressure;Samples;Min_cycle;Max_cycle;Signal;HPM_P1;HPM_P2
2023/05/14 00:02:09;;;;;;;;;;;11.40;99.90;;;;;;5068895;28;20006;-77
2023/05/14 00:04:34;;;;;;;;;;;11.30;99.90;;;;;;5069961;28;19908;-78
2023/05/14 00:07:00;;;;;;;;;;;11.30;99.90;;;;;;5068492;28;20281;-78
2023/05/14 00:09:25;;;;;;;;;;;11.20;99.90;;;;;;5070108;28;19952;-79
2023/05/14 00:11:51;;;;;;;;;;;11.10;99.90;;;;;;5070252;28;19908;-78
2023/05/14 00:14:16;;;;;;;;;;;11.10;99.90;;;;;;5070164;28;20007;-78
2023/05/14 00:16:42;;;;;;;;;;;11.00;99.90;;;;;;5070070;28;19908;-79
2023/05/14 00:19:07;;;;;;;;;;;11.00;99.90;;;;;;5068425;28;20365;-77
2023/05/14 00:21:33;;;;;;;;;;;10.90;99.90;;;;;;5069686;28;20375;-77
2023/05/14 00:23:59;;;;;;;;;;;10.90;99.90;;;;;;5069650;28;19911;-78
2023/05/14 00:26:24;;;;;;;;;;;10.80;99.90;;;;;;5068322;28;19920;-79
2023/05/14 00:28:50;;;;;;;;;;;10.80;99.90;;;;;;5069547;28;19908;-78
2023/05/14 00:31:15;;;;;;;;;;;10.70;99.90;;;;;;5069538;28;19936;-78
2023/05/14 00:33:41;;;;;;;;;;;10.70;99.90;;;;;;5069508;28;19904;-78
2023/05/14 00:36:06;;;;;;;;;;;10.60;99.90;;;;;;5069612;28;20339;-78
2023/05/14 00:38:32;;;;;;;;;;;10.60;99.90;;;;;;5069206;28;19904;-79
2023/05/14 00:40:57;;;;;;;;;;;10.60;99.90;;;;;;5069543;28;20261;-78
2023/05/14 00:43:24;;;;;;;;;;;10.50;99.90;;;;;;5069292;28;20394;-78
2023/05/14 00:45:50;;;;;;;;;;;10.50;99.90;;;;;;5068003;28;20484;-78
2023/05/14 00:48:16;;;;;;;;;;;10.50;99.90;;;;;;5068325;28;19908;-77
2023/05/14 00:50:41;;;;;;;;;;;10.50;99.90;;;;;;5069127;28;20377;-77
2023/05/14 00:53:09;;;;;;;;;;;10.60;99.90;;;;;;5068754;28;19912;-76
2023/05/14 00:55:38;;;;;;;;;;;10.60;99.90;;;;;;5068325;28;20015;-77
2023/05/14 00:58:08;;;;;;;;;;;10.60;99.90;;;;;;5069583;28;20403;-77
2023/05/14 01:00:34;;;;;;;;;;;10.60;99.90;;;;;;5069016;28;19943;-78
2023/05/14 01:03:00;;;;;;;;;;;10.60;99.90;;;;;;5067981;28;19943;-77
2023/05/14 01:05:28;;;;;;;;;;;10.60;99.90;;;;;;5067891;28;19908;-77
2023/05/14 01:08:00;;;;;;;;;;;10.60;99.90;;;;;;5067953;28;19931;-78
2023/05/14 01:10:36;;;;;;;;;;;10.60;99.90;;;;;;5069223;28;20438;-78
2023/05/14 01:13:08;;;;;;;;;;;10.60;99.90;;;;;;5069098;28;19908;-76
2023/05/14 01:15:34;;;;;;;;;;;10.60;99.90;;;;;;5068953;28;19915;-77
2023/05/14 01:18:04;;;;;;;;;;;10.70;99.90;;;;;;5069054;28;19961;-77
2023/05/14 01:20:29;;;;;;;;;;;10.70;99.90;;;;;;5068805;28;19928;-78
2023/05/14 01:22:55;;;;;;;;;;;10.80;99.90;;;;;;5067702;28;20377;-77
2023/05/14 01:25:20;;;;;;;;;;;10.80;99.90;;;;;;5067382;28;19920;-76
2023/05/14 01:28:07;;;;;;;;;;;10.80;99.90;;;;;;5069077;28;20022;-77
2023/05/14 01:30:39;;;;;;;;;;;10.80;99.90;;;;;;5067441;28;19909;-77
2023/05/14 01:33:06;;;;;;;;;;;11.00;99.90;;;;;;5069078;28;19915;-76
2023/05/14 01:35:32;;;;;;;;;;;11.10;99.90;;;;;;5068802;28;19915;-77
2023/05/14 01:38:02;;;;;;;;;;;11.20;99.90;;;;;;5068888;28;19904;-77
2023/05/14 01:40:28;;;;;;;;;;;11.30;99.90;;;;;;5069065;28;19904;-75
2023/05/14 01:42:54;;;;;;;;;;;11.40;99.90;;;;;;5068626;28;19908;-77
2023/05/14 01:45:20;;;;;;;;;;;11.50;99.90;;;;;;5068418;28;20050;-76
2023/05/14 01:47:46;;;;;;;;;;;11.60;99.90;;;;;;5068749;28;19952;-76
2023/05/14 01:50:11;;;;;;;;;;;11.70;99.90;;;;;;5067783;28;19962;-78
2023/05/14 01:52:37;;;;;;;;;;;11.70;99.90;;;;;;5068508;28;19955;-78
2023/05/14 01:55:04;;;;;;;;;;;11.80;99.90;;;;;;5068657;28;19908;-78
2023/05/14 01:57:29;;;;;;;;;;;11.70;99.90;;;;;;5068609;28;19912;-76
2023/05/14 01:59:55;;;;;;;;;;;11.70;99.90;;;;;;5067200;28;20003;-77
2023/05/14 02:02:20;;;;;;;;;;;11.70;99.90;;;;;;5068655;28;20426;-78
2023/05/14 02:04:46;;;;;;;;;;;11.70;99.90;;;;;;5068741;28;19915;-77
2023/05/14 02:07:11;;;;;;;;;;;11.70;99.90;;;;;;5072337;28;19916;-77
2023/05/14 02:09:37;;;;;;;;;;;11.70;99.90;;;;;;5072345;28;19912;-77
2023/05/14 02:12:03;;;;;;;;;;;11.70;99.90;;;;;;5072404;28;20230;-77
2023/05/14 02:14:28;;;;;;;;;;;11.70;99.90;;;;;;5072399;28;20455;-78
2023/05/14 02:16:54;;;;;;;;;;;11.70;99.90;;;;;;5072363;28;19934;-78
2023/05/14 02:19:19;;;;;;;;;;;11.70;99.90;;;;;;5072459;28;19997;-78
2023/05/14 02:21:45;;;;;;;;;;;11.70;99.90;;;;;;5072227;28;20365;-77
2023/05/14 02:24:11;;;;;;;;;;;11.70;99.90;;;;;;5072293;28;19908;-77
2023/05/14 02:26:36;;;;;;;;;;;11.80;99.90;;;;;;5071667;28;20392;-77
2023/05/14 02:29:02;;;;;;;;;;;11.80;99.90;;;;;;5072124;28;19912;-77
2023/05/14 02:31:27;;;;;;;;;;;11.80;99.90;;;;;;5072029;28;20379;-77
2023/05/14 02:33:53;;;;;;;;;;;11.90;99.90;;;;;;5071944;28;19931;-77
2023/05/14 02:36:18;;;;;;;;;;;11.90;99.90;;;;;;5072070;28;20266;-77
2023/05/14 02:38:44;;;;;;;;;;;11.90;99.90;;;;;;5071738;28;20296;-78
2023/05/14 02:41:09;;;;;;;;;;;12.00;99.90;;;;;;5071542;28;20280;-77
2023/05/14 02:43:35;;;;;;;;;;;12.00;99.90;;;;;;5071352;28;19909;-78
2023/05/14 02:46:00;;;;;;;;;;;12.10;99.90;;;;;;5071399;28;19931;-78
2023/05/14 02:48:26;;;;;;;;;;;12.10;99.90;;;;;;5070222;28;19912;-78
2023/05/14 02:50:51;;;;;;;;;;;12.10;99.90;;;;;;5071274;28;19959;-78
2023/05/14 02:53:17;;;;;;;;;;;12.10;99.90;;;;;;5070273;28;19908;-76
2023/05/14 02:55:42;;;;;;;;;;;12.20;99.90;;;;;;5071558;28;20442;-76
2023/05/14 02:58:09;;;;;;;;;;;12.20;99.90;;;;;;5071411;28;19927;-77
2023/05/14 03:00:34;;;;;;;;;;;12.20;99.90;;;;;;5071291;28;19908;-78
2023/05/14 03:03:00;;;;;;;;;;;12.10;99.90;;;;;;5071257;28;19935;-78
2023/05/14 03:05:25;;;;;;;;;;;12.20;99.90;;;;;;5071111;28;19913;-78
2023/05/14 03:07:52;;;;;;;;;;;12.20;99.90;;;;;;5071167;28;19908;-77
2023/05/14 03:10:18;;;;;;;;;;;12.30;99.90;;;;;;5071297;28;19908;-77
2023/05/14 03:12:44;;;;;;;;;;;12.40;99.90;;;;;;5069459;28;19927;-77
2023/05/14 03:15:09;;;;;;;;;;;12.40;99.90;;;;;;5070896;28;20662;-76
2023/05/14 03:17:35;;;;;;;;;;;12.40;99.90;;;;;;5070026;28;19912;-77
2023/05/14 03:20:01;;;;;;;;;;;12.50;99.90;;;;;;5070876;28;20302;-77
2023/05/14 03:22:26;;;;;;;;;;;12.60;99.90;;;;;;5070869;28;19908;-78
2023/05/14 03:24:52;;;;;;;;;;;12.60;99.90;;;;;;5070641;28;19908;-76
2023/05/14 03:27:18;;;;;;;;;;;12.60;99.90;;;;;;5070593;28;20319;-75
2023/05/14 03:29:43;;;;;;;;;;;12.60;99.90;;;;;;5069639;28;19998;-75
2023/05/14 03:32:09;;;;;;;;;;;12.60;99.90;;;;;;5070558;28;20003;-76
2023/05/14 03:34:43;;;;;;;;;;;12.60;99.90;;;;;;5070446;28;20375;-75
2023/05/14 03:37:09;;;;;;;;;;;12.70;99.90;;;;;;5070620;28;19935;-76
2023/05/14 03:39:35;;;;;;;;;;;12.70;99.90;;;;;;5070661;28;20367;-76
2023/05/14 03:42:00;;;;;;;;;;;12.80;99.90;;;;;;5069056;28;19912;-78
2023/05/14 03:44:26;;;;;;;;;;;12.80;99.90;;;;;;5070447;28;19912;-77
2023/05/14 03:46:51;;;;;;;;;;;12.90;99.90;;;;;;5070547;28;20005;-78
2023/05/14 03:49:17;;;;;;;;;;;13.00;99.90;;;;;;5070634;28;19913;-77
2023/05/14 03:51:43;;;;;;;;;;;13.10;99.90;;;;;;5070414;28;20388;-77
2023/05/14 03:54:09;;;;;;;;;;;13.10;99.90;;;;;;5070099;28;19909;-76
2023/05/14 03:56:34;;;;;;;;;;;13.10;99.90;;;;;;5069761;28;19915;-76
2023/05/14 03:59:00;;;;;;;;;;;13.20;99.90;;;;;;5070195;28;19908;-76
2023/05/14 04:01:25;;;;;;;;;;;13.20;99.90;;;;;;5070072;28;20403;-75
2023/05/14 04:03:51;;;;;;;;;;;13.20;99.90;;;;;;5070187;28;19912;-77
2023/05/14 04:06:16;;;;;;;;;;;13.20;99.90;;;;;;5069924;28;20286;-76
2023/05/14 04:08:42;;;;;;;;;;;13.20;99.90;;;;;;5069779;28;19947;-78
2023/05/14 04:11:07;;;;;;;;;;;13.10;99.90;;;;;;5069886;28;20028;-76
2023/05/14 04:13:33;;;;;;;;;;;13.10;99.90;;;;;;5069825;28;19959;-78
2023/05/14 04:15:59;;;;;;;;;;;13.10;99.90;;;;;;5069720;28;19931;-78
2023/05/14 04:18:24;;;;;;;;;;;13.20;99.90;;;;;;5069549;28;20391;-76
2023/05/14 04:20:50;;;;;;;;;;;13.30;99.90;;;;;;5068203;28;19913;-78
2023/05/14 04:23:15;;;;;;;;;;;13.20;99.90;;;;;;5068583;28;19908;-78
2023/05/14 04:25:41;;;;;;;;;;;13.30;99.90;;;;;;5069390;28;19926;-77
2023/05/14 04:28:06;;;;;;;;;;;13.30;99.90;;;;;;5069411;28;19974;-78
2023/05/14 04:30:32;;;;;;;;;;;13.20;99.90;;;;;;5069211;28;19914;-77
2023/05/14 04:32:57;;;;;;;;;;;13.20;99.90;;;;;;5069366;28;19904;-78
2023/05/14 04:35:23;;;;;;;;;;;13.20;99.90;;;;;;5068196;28;19998;-77
2023/05/14 04:37:49;;;;;;;;;;;13.30;99.90;;;;;;5069490;28;19910;-76
2023/05/14 04:40:15;;;;;;;;;;;13.40;99.90;;;;;;5068159;28;19916;-76
2023/05/14 04:42:41;;;;;;;;;;;13.60;99.90;;;;;;5069087;28;20312;-76
2023/05/14 04:45:07;;;;;;;;;;;13.60;99.90;;;;;;5069132;28;19912;-76
2023/05/14 04:47:33;;;;;;;;;;;13.70;99.90;;;;;;5069450;28;19908;-76
2023/05/14 04:49:58;;;;;;;;;;;13.80;99.90;;;;;;5069047;28;20481;-77
2023/05/14 04:52:24;;;;;;;;;;;13.80;99.90;;;;;;5069044;28;19909;-75
2023/05/14 04:54:50;;;;;;;;;;;13.70;99.90;;;;;;5068920;28;19987;-76
2023/05/14 04:57:15;;;;;;;;;;;13.80;99.90;;;;;;5069076;28;19957;-75
2023/05/14 04:59:41;;;;;;;;;;;13.90;99.90;;;;;;5067866;28;20288;-76
2023/05/14 05:02:07;;;;;;;;;;;13.90;99.90;;;;;;5068547;28;20407;-76
2023/05/14 05:04:32;;;;;;;;;;;14.00;99.90;;;;;;5067143;28;20539;-77
2023/05/14 05:06:58;;;;;;;;;;;14.00;99.90;;;;;;5068989;28;19917;-77
2023/05/14 05:09:23;;;;;;;;;;;14.10;99.90;;;;;;5068669;28;19908;-76
2023/05/14 05:11:49;;;;;;;;;;;14.10;99.90;;;;;;5068809;28;19995;-78
2023/05/14 05:14:15;;;;;;;;;;;14.10;99.90;;;;;;5068648;28;20325;-77
2023/05/14 05:16:40;;;;;;;;;;;14.20;99.90;;;;;;5068554;28;19911;-78
2023/05/14 05:19:06;;;;;;;;;;;14.20;99.90;;;;;;5069017;28;20347;-79
2023/05/14 05:21:31;;;;;;;;;;;14.30;99.90;;;;;;5068643;28;19994;-78
2023/05/14 05:23:57;;;;;;;;;;;14.30;99.60;;;;;;5067198;28;19916;-78
2023/05/14 05:26:23;;;;;;;;;;;14.20;99.90;;;;;;5068552;28;19916;-77
2023/05/14 05:28:49;;;;;;;;;;;14.20;99.90;;;;;;5068482;28;19908;-77
2023/05/14 05:31:15;;;;;;;;;;;14.20;99.90;;;;;;5068567;28;19934;-77
2023/05/14 05:33:40;;;;;;;;;;;14.20;99.90;;;;;;5068580;28;20377;-77
2023/05/14 05:36:06;;;;;;;;;;;14.10;99.90;;;;;;5068525;28;19908;-77
2023/05/14 05:38:32;;;;;;;;;;;14.20;99.90;;;;;;5067044;28;19916;-78
2023/05/14 05:40:57;;;;;;;;;;;14.20;99.90;;;;;;5068115;28;19961;-77
2023/05/14 05:43:23;;;;;;;;;;;14.10;99.90;;;;;;5066998;28;19959;-78
2023/05/14 05:45:48;;;;;;;;;;;14.10;99.90;;;;;;5068227;28;20483;-76
2023/05/14 05:48:14;;;;;;;;;;;14.20;99.90;;;;;;5068617;28;20357;-77
2023/05/14 05:50:39;;;;;;;;;;;14.20;99.90;;;;;;5068299;28;20438;-78
2023/05/14 05:53:05;;;;;;;;;;;14.20;99.90;;;;;;5067004;28;19911;-77
2023/05/14 05:55:30;;;;;;;;;;;14.20;99.90;;;;;;5068201;28;20249;-77
2023/05/14 05:57:56;;;;;;;;;;;14.40;99.90;;;;;;5068167;28;20408;-77
2023/05/14 06:00:22;;;;;;;;;;;14.50;99.90;;;;;;5068274;28;19954;-77
2023/05/14 06:02:48;;;;;;;;;;;14.50;99.90;;;;;;5066625;28;20387;-78
2023/05/14 06:05:13;;;;;;;;;;;14.60;99.90;;;;;;5068269;28;19999;-77
2023/05/14 06:07:39;;;;;;;;;;;14.60;99.90;;;;;;5068386;28;19999;-78
2023/05/14 06:10:05;;;;;;;;;;;14.70;99.90;;;;;;5068164;28;19915;-77
2023/05/14 06:12:30;;;;;;;;;;;14.70;99.70;;;;;;5067921;28;19904;-77
2023/05/14 06:14:56;;;;;;;;;;;14.80;99.90;;;;;;5066702;28;19916;-77
2023/05/14 06:17:22;;;;;;;;;;;14.70;99.30;;;;;;5068044;28;20364;-78
2023/05/14 06:19:48;;;;;;;;;;;14.70;99.90;;;;;;5066966;28;19915;-78
2023/05/14 06:22:14;;;;;;;;;;;14.80;99.90;;;;;;5067718;28;19908;-77
2023/05/14 06:24:39;;;;;;;;;;;14.80;99.90;;;;;;5066345;28;20373;-78
2023/05/14 06:27:05;;;;;;;;;;;14.80;99.90;;;;;;5068034;28;19913;-77
2023/05/14 06:29:30;;;;;;;;;;;14.70;99.90;;;;;;5067817;28;20435;-77
2023/05/14 06:32:00;;;;;;;;;;;14.80;99.90;;;;;;5067890;28;20383;-77
2023/05/14 06:34:25;;;;;;;;;;;14.80;99.90;;;;;;5068152;28;19978;-77
2023/05/14 06:36:51;;;;;;;;;;;14.80;99.90;;;;;;5067733;28;19908;-77
2023/05/14 06:39:16;;;;;;;;;;;14.80;99.90;;;;;;5068032;28;19916;-78
2023/05/14 06:41:42;;;;;;;;;;;14.80;99.90;;;;;;5067820;28;19908;-79
2023/05/14 06:44:07;;;;;;;;;;;14.80;99.90;;;;;;5066604;28;19988;-78
2023/05/14 06:46:33;;;;;;;;;;;14.80;99.90;;;;;;5067527;28;19912;-75
2023/05/14 06:48:59;;;;;;;;;;;14.90;99.90;;;;;;5067326;28;20381;-75
2023/05/14 06:51:24;;;;;;;;;;;14.90;99.90;;;;;;5068696;28;19912;-76
2023/05/14 06:53:51;;;;;;;;;;;15.00;99.90;;;;;;5071275;28;19915;-74
2023/05/14 06:56:17;;;;;;;;;;;15.10;99.90;;;;;;5071654;28;19908;-75
2023/05/14 06:58:42;;;;;;;;;;;15.20;99.90;;;;;;5070016;28;19927;-76
2023/05/14 07:01:08;;;;;;;;;;;15.10;99.90;;;;;;5071394;28;19908;-75
2023/05/14 07:03:33;;;;;;;;;;;15.10;99.90;;;;;;5071213;28;20000;-76
2023/05/14 07:05:59;;;;;;;;;;;15.10;99.90;;;;;;5071659;28;19916;-76
2023/05/14 07:08:24;;;;;;;;;;;15.10;99.90;;;;;;5071399;28;19985;-76
2023/05/14 07:10:50;;;;;;;;;;;15.20;99.90;;;;;;5071184;28;19912;-76
2023/05/14 07:13:15;;;;;;;;;;;15.10;99.90;;;;;;5071123;28;19904;-76
2023/05/14 07:15:41;;;;;;;;;;;15.10;99.90;;;;;;5071173;28;20346;-75
2023/05/14 07:18:07;;;;;;;;;;;15.10;99.90;;;;;;5071419;28;19990;-75
2023/05/14 07:20:33;;;;;;;;;;;15.20;99.90;;;;;;5070863;28;19931;-75
2023/05/14 07:22:58;;;;;;;;;;;15.20;99.90;;;;;;5069739;28;20384;-77
2023/05/14 07:25:24;;;;;;;;;;;15.30;99.90;;;;;;5070492;28;20009;-75
2023/05/14 07:27:49;;;;;;;;;;;15.30;99.90;;;;;;5069643;28;20422;-75
2023/05/14 07:30:15;;;;;;;;;;;15.40;99.90;;;;;;5070658;28;19908;-75
2023/05/14 07:32:40;;;;;;;;;;;15.30;99.90;;;;;;5069102;28;19911;-77
2023/05/14 07:35:06;;;;;;;;;;;15.50;99.90;;;;;;5070774;28;19929;-75
2023/05/14 07:37:32;;;;;;;;;;;15.50;99.90;;;;;;5071038;28;20383;-75
2023/05/14 07:39:57;;;;;;;;;;;15.50;99.90;;;;;;5070592;28;19920;-76
2023/05/14 07:42:23;;;;;;;;;;;15.50;99.30;;;;;;5070720;28;19950;-76
2023/05/14 07:44:50;;;;;;;;;;;15.60;99.90;;;;;;5070557;28;19942;-76
2023/05/14 07:47:15;;;;;;;;;;;15.70;99.90;;;;;;5069906;28;19923;-76
2023/05/14 07:49:41;;;;;;;;;;;15.90;99.90;;;;;;5070399;28;19908;-76
2023/05/14 07:52:06;;;;;;;;;;;16.00;99.90;;;;;;5070328;28;19908;-76
2023/05/14 07:54:32;;;;;;;;;;;16.10;98.80;;;;;;5070038;28;19908;-77
2023/05/14 07:56:57;;;;;;;;;;;16.10;98.30;;;;;;5068885;28;19965;-76
2023/05/14 07:59:23;;;;;;;;;;;16.20;98.10;;;;;;5069941;28;20300;-76
2023/05/14 08:01:48;;;;;;;;;;;16.20;99.40;;;;;;5068632;28;20110;-76
2023/05/14 08:04:15;;;;;;;;;;;16.30;98.60;;;;;;5069939;28;20443;-77
2023/05/14 08:06:41;;;;;;;;;;;16.40;97.00;;;;;;5069052;28;20646;-77
2023/05/14 08:09:07;;;;;;;;;;;16.50;97.10;;;;;;5068794;28;19904;-77
2023/05/14 08:11:33;;;;;;;;;;;16.60;96.50;;;;;;5069576;28;19959;-77
2023/05/14 08:13:58;;;;;;;;;;;16.70;94.20;;;;;;5069616;28;19958;-78
2023/05/14 08:16:25;;;;;;;;;;;16.70;95.50;;;;;;5070008;28;20444;-77
2023/05/14 08:18:50;;;;;;;;;;;16.80;94.70;;;;;;5069675;28;20423;-77
2023/05/14 08:21:16;;;;;;;;;;;17.00;91.90;;;;;;5069954;28;19908;-77
2023/05/14 08:23:42;;;;;;;;;;;17.00;90.50;;;;;;5069647;28;19914;-77
2023/05/14 08:26:07;;;;;;;;;;;17.00;90.60;;;;;;5069695;28;20009;-78
2023/05/14 08:28:33;;;;;;;;;;;17.20;91.90;;;;;;5069653;28;19966;-78
2023/05/14 08:30:58;;;;;;;;;;;17.30;91.50;;;;;;5069544;28;20289;-78
2023/05/14 08:33:24;;;;;;;;;;;17.40;88.90;;;;;;5068534;28;20277;-77
2023/05/14 08:35:51;;;;;;;;;;;17.50;89.60;;;;;;5068348;28;19908;-76
2023/05/14 08:38:17;;;;;;;;;;;17.60;88.10;;;;;;5069922;28;19909;-76
2023/05/14 08:40:55;;;;;;;;;;;17.80;85.00;;;;;;5069557;28;19939;-79
2023/05/14 08:43:24;;;;;;;;;;;17.90;84.50;;;;;;5069134;28;19908;-77
2023/05/14 08:45:52;;;;;;;;;;;18.00;83.30;;;;;;5069077;28;19920;-77
2023/05/14 08:48:20;;;;;;;;;;;18.30;81.50;;;;;;5068005;28;19978;-79
2023/05/14 08:50:46;;;;;;;;;;;18.60;81.40;;;;;;5069036;28;20306;-78
2023/05/14 08:53:11;;;;;;;;;;;19.00;79.60;;;;;;5068973;28;19904;-75
2023/05/14 08:55:37;;;;;;;;;;;19.30;75.40;;;;;;5069299;28;19919;-75
2023/05/14 08:58:03;;;;;;;;;;;19.50;73.10;;;;;;5069305;28;19911;-75
2023/05/14 09:00:28;;;;;;;;;;;19.70;72.40;;;;;;5069558;28;19908;-76
2023/05/14 09:02:54;;;;;;;;;;;19.90;71.50;;;;;;5068749;28;19995;-75
2023/05/14 09:05:20;;;;;;;;;;;19.90;68.30;;;;;;5068922;28;19912;-75
2023/05/14 09:07:46;;;;;;;;;;;20.00;70.70;;;;;;5069024;28;19986;-76
2023/05/14 09:10:12;;;;;;;;;;;20.20;71.00;;;;;;5068752;28;19970;-75
2023/05/14 09:12:37;;;;;;;;;;;20.30;67.40;;;;;;5068097;28;20009;-76
2023/05/14 09:15:03;;;;;;;;;;;20.50;68.40;;;;;;5067224;28;20374;-74
2023/05/14 09:17:29;;;;;;;;;;;20.70;68.20;;;;;;5068826;28;20359;-74
2023/05/14 09:19:54;;;;;;;;;;;20.80;68.60;;;;;;5068874;28;19970;-75
2023/05/14 09:22:21;;;;;;;;;;;20.70;67.90;;;;;;5068783;28;20269;-77
2023/05/14 09:25:00;;;;;;;;;;;20.60;67.10;;;;;;5067054;28;19904;-75
2023/05/14 09:27:28;;;;;;;;;;;20.60;65.80;;;;;;5068548;28;19981;-75
2023/05/14 09:29:53;;;;;;;;;;;20.50;66.20;;;;;;5068710;28;19973;-75
2023/05/14 09:32:19;;;;;;;;;;;20.50;69.80;;;;;;5067913;28;19989;-76
2023/05/14 09:34:44;;;;;;;;;;;20.70;71.40;;;;;;5068440;28;19908;-77
2023/05/14 09:37:10;;;;;;;;;;;21.00;68.90;;;;;;5068542;28;20435;-75
2023/05/14 09:39:36;;;;;;;;;;;21.30;65.80;;;;;;5067160;28;20406;-75
2023/05/14 09:42:02;;;;;;;;;;;21.40;65.60;;;;;;5068483;28;19915;-77
2023/05/14 09:44:27;;;;;;;;;;;21.10;66.30;;;;;;5068531;28;19934;-76
2023/05/14 09:46:53;;;;;;;;;;;20.70;68.60;;;;;;5068424;28;19916;-77
2023/05/14 09:49:19;;;;;;;;;;;20.40;69.10;;;;;;5067142;28;19961;-75
2023/05/14 09:51:45;;;;;;;;;;;19.90;71.10;;;;;;5068421;28;19908;-76
2023/05/14 09:54:11;;;;;;;;;;;19.70;71.20;;;;;;5068497;28;19915;-76
2023/05/14 09:56:36;;;;;;;;;;;19.40;73.10;;;;;;5067164;28;19915;-75
2023/05/14 09:59:03;;;;;;;;;;;19.10;76.00;;;;;;5068237;28;20506;-75
2023/05/14 10:01:29;;;;;;;;;;;18.90;74.80;;;;;;5067836;28;19904;-76
2023/05/14 10:03:55;;;;;;;;;;;18.80;75.20;;;;;;5067667;28;20001;-76
2023/05/14 10:06:31;;;;;;;;;;;18.60;76.30;;;;;;5067661;28;20354;-76
2023/05/14 10:09:00;;;;;;;;;;;18.50;78.00;;;;;;5068156;28;20031;-75
2023/05/14 10:11:28;;;;;;;;;;;18.60;80.20;;;;;;5068029;28;19987;-76
2023/05/14 10:14:09;;;;;;;;;;;18.50;81.00;;;;;;5068564;28;19915;-75
2023/05/14 10:16:37;;;;;;;;;;;18.40;82.40;;;;;;5066774;28;20292;-77
2023/05/14 10:19:09;;;;;;;;;;;18.20;86.00;;;;;;5068525;28;20551;-76
2023/05/14 10:21:36;;;;;;;;;;;18.20;86.90;;;;;;5068209;28;19904;-77
2023/05/14 10:24:03;;;;;;;;;;;18.20;82.90;;;;;;5067028;28;20454;-75
2023/05/14 10:26:29;;;;;;;;;;;18.10;83.50;;;;;;5069379;28;20312;-76
2023/05/14 10:28:55;;;;;;;;;;;18.10;82.50;;;;;;5071835;28;20361;-75
2023/05/14 10:31:39;;;;;;;;;;;18.00;83.00;;;;;;5070654;28;19904;-76
2023/05/14 10:34:25;;;;;;;;;;;18.10;84.00;;;;;;5071811;28;19970;-77
2023/05/14 10:36:50;;;;;;;;;;;18.00;85.10;;;;;;5071321;28;20392;-75
2023/05/14 10:39:16;;;;;;;;;;;18.00;81.80;;;;;;5071825;28;19914;-75
2023/05/14 10:41:41;;;;;;;;;;;17.80;81.70;;;;;;5071379;28;20010;-76
2023/05/14 10:44:07;;;;;;;;;;;17.70;82.30;;;;;;5071602;28;19999;-75
2023/05/14 10:46:32;;;;;;;;;;;17.60;84.10;;;;;;5070966;28;20278;-75
2023/05/14 10:48:58;;;;;;;;;;;17.60;84.00;;;;;;5069385;28;19908;-76
2023/05/14 10:51:24;;;;;;;;;;;17.50;86.40;;;;;;5071167;28;20011;-76
2023/05/14 10:53:50;;;;;;;;;;;17.40;89.40;;;;;;5071245;28;19908;-75
2023/05/14 10:56:15;;;;;;;;;;;17.30;91.40;;;;;;5071496;28;20354;-74
2023/05/14 10:58:42;;;;;;;;;;;17.10;92.50;;;;;;5071335;28;20445;-77
2023/05/14 11:01:09;;;;;;;;;;;17.10;93.30;;;;;;5071182;28;19919;-77
2023/05/14 11:03:41;;;;;;;;;;;17.00;94.60;;;;;;5071295;28;19909;-77
2023/05/14 11:06:08;;;;;;;;;;;17.10;96.20;;;;;;5071082;28;19923;-77
2023/05/14 11:08:33;;;;;;;;;;;17.10;96.00;;;;;;5071091;28;19908;-78
2023/05/14 11:10:59;;;;;;;;;;;17.10;95.30;;;;;;5071087;28;19909;-76
2023/05/14 11:13:25;;;;;;;;;;;17.20;96.10;;;;;;5071028;28;19973;-78
2023/05/14 11:15:50;;;;;;;;;;;17.20;98.50;;;;;;5070562;28;20003;-76
2023/05/14 11:18:29;;;;;;;;;;;17.20;99.10;;;;;;5071039;28;20396;-78
2023/05/14 11:21:01;;;;;;;;;;;17.20;99.90;;;;;;5071227;28;19911;-78
2023/05/14 11:23:27;;;;;;;;;;;17.10;99.90;;;;;;5069807;28;19952;-78
2023/05/14 11:25:53;;;;;;;;;;;17.10;99.90;;;;;;5070362;28;19920;-79
2023/05/14 11:28:19;;;;;;;;;;;17.10;99.90;;;;;;5070772;28;19905;-78
2023/05/14 11:30:45;;;;;;;;;;;17.00;99.90;;;;;;5066776;28;19904;-79
2023/05/14 11:33:11;;;;;;;;;;;17.00;99.90;;;;;;5070563;28;20360;-77
2023/05/14 11:35:36;;;;;;;;;;;16.90;99.90;;;;;;5070767;28;19966;-77
2023/05/14 11:38:02;;;;;;;;;;;16.70;99.90;;;;;;5069049;28;19908;-78
2023/05/14 11:40:27;;;;;;;;;;;16.60;99.90;;;;;;5069981;28;19950;-80
2023/05/14 11:42:53;;;;;;;;;;;16.40;99.90;;;;;;5070575;28;19999;-76
2023/05/14 11:45:25;;;;;;;;;;;16.20;99.90;;;;;;5070276;28;19908;-78
2023/05/14 11:47:51;;;;;;;;;;;16.00;99.90;;;;;;5070500;28;19912;-78
2023/05/14 11:50:17;;;;;;;;;;;15.90;99.90;;;;;;5070802;28;19904;-76
2023/05/14 11:52:42;;;;;;;;;;;15.90;99.90;;;;;;5070482;28;19905;-76
2023/05/14 11:55:11;;;;;;;;;;;15.80;99.90;;;;;;5070879;28;19908;-76
2023/05/14 11:57:37;;;;;;;;;;;15.80;99.90;;;;;;5070493;28;19958;-76
2023/05/14 12:00:05;;;;;;;;;;;15.70;99.90;;;;;;5070402;28;20373;-77
2023/05/14 12:02:30;;;;;;;;;;;15.70;99.90;;;;;;5070234;28;19915;-77
2023/05/14 12:04:56;;;;;;;;;;;15.70;99.90;;;;;;5070420;28;20288;-76
2023/05/14 12:07:22;;;;;;;;;;;15.70;99.90;;;;;;5070140;28;19916;-77
2023/05/14 12:09:48;;;;;;;;;;;15.80;99.90;;;;;;5068870;28;19912;-76
2023/05/14 12:12:15;;;;;;;;;;;15.80;99.90;;;;;;5070342;28;19904;-77
2023/05/14 12:14:41;;;;;;;;;;;15.80;99.90;;;;;;5069867;28;19943;-76
2023/05/14 12:17:16;;;;;;;;;;;15.80;99.90;;;;;;5069733;28;20019;-76
2023/05/14 12:19:42;;;;;;;;;;;15.80;99.90;;;;;;5069933;28;19948;-76
2023/05/14 12:22:09;;;;;;;;;;;15.70;99.90;;;;;;5070019;28;20395;-77
2023/05/14 12:24:35;;;;;;;;;;;15.70;99.90;;;;;;5069786;28;20258;-77
2023/05/14 12:27:01;;;;;;;;;;;15.70;99.90;;;;;;5068144;28;20607;-76
2023/05/14 12:29:26;;;;;;;;;;;15.80;99.90;;;;;;5068481;28;19939;-76
2023/05/14 12:31:52;;;;;;;;;;;15.80;99.90;;;;;;5069555;28;19911;-76
2023/05/14 12:34:18;;;;;;;;;;;15.80;99.90;;;;;;5070000;28;19965;-77
2023/05/14 12:36:43;;;;;;;;;;;15.80;99.90;;;;;;5069660;28;20388;-77
2023/05/14 12:39:09;;;;;;;;;;;15.80;99.90;;;;;;5069640;28;20226;-77
2023/05/14 12:41:35;;;;;;;;;;;15.80;99.90;;;;;;5069421;28;19904;-77
2023/05/14 12:44:01;;;;;;;;;;;15.80;99.90;;;;;;5069460;28;19908;-77
2023/05/14 12:46:27;;;;;;;;;;;15.80;99.90;;;;;;5069513;28;19912;-77
2023/05/14 12:48:53;;;;;;;;;;;15.80;99.90;;;;;;5067755;28;20293;-78
2023/05/14 12:51:19;;;;;;;;;;;15.90;99.90;;;;;;5069077;28;19939;-77
2023/05/14 12:53:44;;;;;;;;;;;15.90;99.90;;;;;;5069673;28;19944;-77
2023/05/14 12:56:10;;;;;;;;;;;16.00;99.90;;;;;;5069259;28;19969;-78
2023/05/14 12:58:36;;;;;;;;;;;16.10;99.90;;;;;;5069113;28;19908;-77
2023/05/14 13:01:02;;;;;;;;;;;16.20;99.90;;;;;;5067890;28;19908;-77
2023/05/14 13:03:27;;;;;;;;;;;16.30;99.90;;;;;;5069205;28;19912;-78
2023/05/14 13:05:53;;;;;;;;;;;16.40;99.90;;;;;;5069035;28;19915;-77
2023/05/14 13:08:20;;;;;;;;;;;16.40;99.90;;;;;;5069074;28;20647;-78
2023/05/14 13:10:46;;;;;;;;;;;16.50;99.90;;;;;;5068881;28;19951;-77
2023/05/14 13:13:14;;;;;;;;;;;16.50;99.90;;;;;;5068804;28;20383;-78
2023/05/14 13:15:39;;;;;;;;;;;16.40;99.90;;;;;;5067880;28;20367;-78
2023/05/14 13:18:05;;;;;;;;;;;16.40;99.90;;;;;;5068824;28;19904;-76
2023/05/14 13:20:32;;;;;;;;;;;16.20;99.90;;;;;;5068795;28;19912;-76
2023/05/14 13:22:58;;;;;;;;;;;16.10;99.90;;;;;;5068883;28;19912;-77
2023/05/14 13:25:23;;;;;;;;;;;16.00;99.90;;;;;;5067658;28;19909;-77
2023/05/14 13:27:52;;;;;;;;;;;16.00;99.90;;;;;;5068971;28;20448;-76
2023/05/14 13:30:18;;;;;;;;;;;15.90;99.90;;;;;;5068882;28;19909;-76
2023/05/14 13:32:43;;;;;;;;;;;15.80;99.90;;;;;;5068517;28;19909;-78
2023/05/14 13:35:09;;;;;;;;;;;15.80;99.90;;;;;;5068853;28;19904;-76
2023/05/14 13:37:35;;;;;;;;;;;15.70;99.90;;;;;;5068836;28;19939;-76
2023/05/14 13:40:00;;;;;;;;;;;15.70;99.90;;;;;;5068750;28;19912;-77
2023/05/14 13:42:26;;;;;;;;;;;15.60;99.90;;;;;;5068895;28;19939;-77
2023/05/14 13:44:51;;;;;;;;;;;15.50;99.90;;;;;;5068827;28;20311;-77
2023/05/14 13:47:17;;;;;;;;;;;15.50;99.90;;;;;;5068830;28;19920;-76
2023/05/14 13:49:43;;;;;;;;;;;15.50;99.90;;;;;;5068563;28;19916;-77
2023/05/14 13:52:08;;;;;;;;;;;15.40;99.90;;;;;;5068015;28;20376;-76
2023/05/14 13:54:34;;;;;;;;;;;15.40;99.90;;;;;;5068834;28;19915;-77
2023/05/14 13:56:59;;;;;;;;;;;15.30;99.90;;;;;;5068768;28;19932;-76
2023/05/14 13:59:25;;;;;;;;;;;15.30;99.90;;;;;;5068686;28;19908;-76
2023/05/14 14:01:50;;;;;;;;;;;15.20;99.90;;;;;;5071641;28;19995;-76
2023/05/14 14:04:16;;;;;;;;;;;15.10;99.90;;;;;;5072732;28;20388;-76
2023/05/14 14:06:42;;;;;;;;;;;15.00;99.90;;;;;;5072206;28;19963;-77
2023/05/14 14:09:07;;;;;;;;;;;15.00;99.90;;;;;;5072147;28;19909;-74
2023/05/14 14:11:33;;;;;;;;;;;15.00;99.90;;;;;;5072294;28;19962;-76